Franklin, Nebraska
Current Conditions -  °F | °C
As of 1:55 PM on Sunday 21 Dec 2014 (Local Time) from KHDE Reporting Station
Haze Haze  
Wind Chill: 30°   Ceiling: 300
Heat Index: 38°   Visibility: 4mi
Dew Point: 37°   Wind: 15mph
Humidity: 95%   Direction: 200°SSW
Pressure: 29.62"   Gusts: NA
Location:  40.1°N, 98.95°W
Report Text: KHDE 211955Z AUTO 20013KT 4SM BR BKN003 OVC008 04/03 A2962 RMK AO2 T00350028
Loading
Personal Weather Stations






























Interactive Weather Map New forecast layout! Learn more

10-Day Weather Forecast

Advertisements
Track Severe Weather on mobile